Time;durP1;ratioP1;P1;durP2;ratioP2;P2;SDS_P1;SDS_P2;PMS_P1;PMS_P2;Temp;Humidity;BMP_temperature;BMP_pressure;BME280_temperature;BME280_humidity;BME280_pressure;Samples;Min_cycle;Max_cycle;Signal;HPM_P1;HPM_P2
2021/12/20 00:01:40;;;;;;;0.68;0.68;;;2.40;99.90;;;;;;5113628;28;20446;-51
2021/12/20 00:04:06;;;;;;;0.10;0.10;;;2.40;99.90;;;;;;5115657;28;20046;-51
2021/12/20 00:06:31;;;;;;;0.03;0.03;;;2.50;99.90;;;;;;5117563;28;20036;-49
2021/12/20 00:08:57;;;;;;;1.65;1.08;;;2.40;99.90;;;;;;5118250;28;20027;-49
2021/12/20 00:11:23;;;;;;;3.75;2.08;;;2.40;99.90;;;;;;5117631;28;20024;-47
2021/12/20 00:13:48;;;;;;;0.25;0.25;;;2.40;99.90;;;;;;5117534;28;20024;-51
2021/12/20 00:16:14;;;;;;;0.52;0.52;;;2.30;99.90;;;;;;5117588;28;20027;-51
2021/12/20 00:18:42;;;;;;;0.45;0.45;;;2.30;99.90;;;;;;5117858;28;20472;-49
2021/12/20 00:21:08;;;;;;;0.00;0.00;;;2.40;99.90;;;;;;5117457;28;20537;-48
2021/12/20 00:23:34;;;;;;;1.23;1.13;;;2.40;99.90;;;;;;5117749;28;20390;-51
2021/12/20 00:25:59;;;;;;;2.05;1.23;;;2.40;99.90;;;;;;5117457;28;20023;-49
2021/12/20 00:28:25;;;;;;;0.32;0.32;;;2.40;99.90;;;;;;5117585;28;20069;-52
2021/12/20 00:30:51;;;;;;;0.00;0.00;;;2.50;99.90;;;;;;5117681;28;20032;-47
2021/12/20 00:33:17;;;;;;;0.00;0.00;;;2.40;99.90;;;;;;5117301;28;20106;-47
2021/12/20 00:35:43;;;;;;;0.00;0.00;;;2.40;99.90;;;;;;5117234;28;20024;-52
2021/12/20 00:40:53;;;;;;;0.20;0.20;;;2.40;99.90;;;;;;5117559;28;20034;-49
2021/12/20 00:43:19;;;;;;;0.73;0.25;;;2.40;99.90;;;;;;5117408;28;20024;-50
2021/12/20 00:45:44;;;;;;;0.00;0.00;;;2.50;99.90;;;;;;5117601;28;20027;-51
2021/12/20 00:48:10;;;;;;;0.68;0.68;;;2.50;99.90;;;;;;5117247;28;20542;-50
2021/12/20 00:50:39;;;;;;;0.00;0.00;;;2.60;99.90;;;;;;5117314;28;20020;-49
2021/12/20 00:53:04;;;;;;;0.05;0.05;;;2.60;99.90;;;;;;5098941;28;20027;-48
2021/12/20 00:55:30;;;;;;;0.00;0.00;;;2.50;99.90;;;;;;5117239;28;20028;-49
2021/12/20 00:57:58;;;;;;;1.63;1.52;;;2.50;99.90;;;;;;5117162;28;20028;-49
2021/12/20 01:00:45;;;;;;;0.08;0.08;;;2.60;99.90;;;;;;5116769;28;20034;-48
2021/12/20 01:03:13;;;;;;;0.00;0.00;;;2.60;99.90;;;;;;5117185;28;20060;-51
2021/12/20 01:05:40;;;;;;;0.00;0.00;;;2.60;99.90;;;;;;5117290;28;20052;-49
2021/12/20 01:08:07;;;;;;;0.00;0.00;;;2.60;99.90;;;;;;5116791;28;20393;-50
2021/12/20 01:10:35;;;;;;;0.75;0.70;;;2.70;99.90;;;;;;5116846;28;20110;-48
2021/12/20 01:13:02;;;;;;;0.22;0.22;;;2.50;99.90;;;;;;5116837;28;20024;-51
2021/12/20 01:15:33;;;;;;;0.10;0.10;;;2.60;99.90;;;;;;5116248;28;20382;-47
2021/12/20 01:18:00;;;;;;;0.90;0.90;;;2.60;99.90;;;;;;5117064;28;20027;-48
2021/12/20 01:20:26;;;;;;;2.40;0.50;;;2.60;99.90;;;;;;5116363;28;20273;-48
2021/12/20 01:22:52;;;;;;;2.63;1.15;;;2.60;99.90;;;;;;5116632;28;20027;-46
2021/12/20 01:25:20;;;;;;;0.15;0.15;;;2.60;99.90;;;;;;5116472;28;20030;-53
2021/12/20 01:27:46;;;;;;;3.78;2.55;;;2.60;99.90;;;;;;5098211;28;20389;-52
2021/12/20 01:30:13;;;;;;;1.80;1.65;;;2.60;99.90;;;;;;5116762;28;20027;-49
2021/12/20 01:32:41;;;;;;;0.00;0.00;;;2.50;99.90;;;;;;5116387;28;20024;-51
2021/12/20 01:35:07;;;;;;;0.00;0.00;;;2.50;99.90;;;;;;5116439;28;20409;-50
2021/12/20 01:37:33;;;;;;;4.00;1.13;;;2.60;99.90;;;;;;5116042;28;20375;-50
2021/12/20 01:39:59;;;;;;;0.88;0.70;;;2.60;99.90;;;;;;5116371;28;20024;-50
2021/12/20 01:42:28;;;;;;;0.00;0.00;;;2.70;99.90;;;;;;5116235;28;20429;-47
2021/12/20 01:44:57;;;;;;;0.00;0.00;;;2.60;99.90;;;;;;5116251;28;20027;-47
2021/12/20 01:47:27;;;;;;;0.10;0.10;;;2.60;99.90;;;;;;5097721;28;20032;-51
2021/12/20 01:50:02;;;;;;;0.17;0.17;;;2.60;99.90;;;;;;5116009;28;20031;-50
2021/12/20 01:52:38;;;;;;;0.00;0.00;;;2.50;99.90;;;;;;5115908;28;20148;-48
2021/12/20 01:55:05;;;;;;;0.13;0.13;;;2.60;99.90;;;;;;5116020;28;20020;-51
2021/12/20 01:57:31;;;;;;;0.52;0.52;;;2.60;99.90;;;;;;5115964;28;20034;-50
2021/12/20 01:59:56;;;;;;;10.63;2.28;;;2.50;99.90;;;;;;5115887;28;20027;-49
2021/12/20 02:02:23;;;;;;;3.25;1.38;;;2.50;99.90;;;;;;5115513;28;20020;-54
2021/12/20 02:04:50;;;;;;;0.38;0.38;;;2.40;99.90;;;;;;5097274;28;20470;-47
2021/12/20 02:10:14;;;;;;;0.30;0.20;;;2.40;99.90;;;;;;5070025;28;20039;-48
2021/12/20 02:12:40;;;;;;;1.70;1.25;;;2.40;99.90;;;;;;5115695;28;20026;-48
2021/12/20 02:15:06;;;;;;;1.52;0.65;;;2.50;99.90;;;;;;5115286;28;20043;-50
2021/12/20 02:17:32;;;;;;;0.00;0.00;;;2.50;99.90;;;;;;5115381;28;20028;-52
2021/12/20 02:20:03;;;;;;;0.38;0.38;;;2.50;99.90;;;;;;5115481;28;20023;-50
2021/12/20 02:22:29;;;;;;;0.00;0.00;;;2.60;99.90;;;;;;5115067;28;20031;-50
2021/12/20 02:24:54;;;;;;;0.00;0.00;;;2.60;99.90;;;;;;5115108;28;20031;-52
2021/12/20 02:27:22;;;;;;;0.00;0.00;;;2.60;99.90;;;;;;5114036;28;20031;-51
2021/12/20 02:30:04;;;;;;;0.00;0.00;;;2.60;99.90;;;;;;5115029;28;20026;-50
2021/12/20 02:38:20;;;;;;;0.95;0.95;;;2.40;99.90;;;;;;5115203;28;20039;-52
2021/12/20 02:40:46;;;;;;;0.00;0.00;;;2.60;99.90;;;;;;5115405;28;20020;-50
2021/12/20 02:43:16;;;;;;;0.00;0.00;;;2.70;99.90;;;;;;5115017;28;20035;-50
2021/12/20 02:45:43;;;;;;;0.00;0.00;;;2.80;99.90;;;;;;5114892;28;20034;-51
2021/12/20 02:48:08;;;;;;;0.15;0.15;;;2.70;99.90;;;;;;5114888;28;20118;-51
2021/12/20 02:50:34;;;;;;;0.10;0.10;;;2.80;99.90;;;;;;5114906;28;20020;-52
2021/12/20 02:53:00;;;;;;;0.00;0.00;;;2.80;99.90;;;;;;5114924;28;20032;-53
2021/12/20 02:55:25;;;;;;;0.00;0.00;;;2.70;99.90;;;;;;5114514;28;20028;-50
2021/12/20 02:57:51;;;;;;;4.05;1.55;;;2.80;99.90;;;;;;5114604;28;20089;-53
2021/12/20 03:00:17;;;;;;;0.25;0.20;;;2.80;99.90;;;;;;5096408;28;20027;-50
2021/12/20 03:02:43;;;;;;;0.43;0.43;;;2.70;99.90;;;;;;5114371;28;20445;-49
2021/12/20 03:05:10;;;;;;;0.00;0.00;;;2.80;99.90;;;;;;5114517;28;20466;-53
2021/12/20 03:07:45;;;;;;;0.00;0.00;;;2.60;99.90;;;;;;5114152;28;20060;-49
2021/12/20 03:10:12;;;;;;;0.52;0.52;;;2.70;99.90;;;;;;5114678;28;20089;-51
2021/12/20 03:12:38;;;;;;;0.30;0.30;;;2.70;99.90;;;;;;5114468;28;20077;-52
2021/12/20 03:15:11;;;;;;;0.00;0.00;;;2.70;99.90;;;;;;5114451;28;20027;-50
2021/12/20 03:17:37;;;;;;;0.57;0.35;;;2.70;99.90;;;;;;5114480;28;20110;-53
2021/12/20 03:20:04;;;;;;;0.00;0.00;;;2.70;99.90;;;;;;5096166;28;20644;-52
2021/12/20 03:22:30;;;;;;;0.10;0.10;;;2.80;99.90;;;;;;5113993;28;20038;-51
2021/12/20 03:24:55;;;;;;;1.15;0.75;;;2.70;99.90;;;;;;5114275;28;20110;-48
2021/12/20 03:27:21;;;;;;;0.13;0.08;;;2.80;99.90;;;;;;5114408;28;20476;-49
2021/12/20 03:29:47;;;;;;;0.77;0.75;;;2.80;99.90;;;;;;5089891;28;20044;-49
2021/12/20 03:32:13;;;;;;;1.88;1.10;;;2.80;99.90;;;;;;5084996;28;20064;-49
2021/12/20 03:34:39;;;;;;;0.35;0.35;;;2.80;99.90;;;;;;5088978;28;20082;-50
2021/12/20 03:37:04;;;;;;;0.00;0.00;;;2.80;99.90;;;;;;5091685;28;20523;-50
2021/12/20 03:39:30;;;;;;;0.00;0.00;;;2.70;99.90;;;;;;5073211;28;20036;-47
2021/12/20 03:41:56;;;;;;;0.20;0.20;;;2.70;99.90;;;;;;5073028;28;20096;-50
2021/12/20 03:44:22;;;;;;;0.25;0.15;;;2.70;99.90;;;;;;5073166;28;20032;-51
2021/12/20 03:46:48;;;;;;;0.10;0.10;;;2.80;99.90;;;;;;5073594;28;20103;-48
2021/12/20 03:49:14;;;;;;;0.00;0.00;;;2.80;99.90;;;;;;5079137;28;20427;-48
2021/12/20 03:51:39;;;;;;;0.55;0.55;;;2.60;99.90;;;;;;5091780;28;20174;-53
2021/12/20 03:54:05;;;;;;;1.15;1.10;;;2.60;99.90;;;;;;5091804;28;20084;-50
2021/12/20 03:56:31;;;;;;;0.00;0.00;;;2.50;99.90;;;;;;5092008;28;20024;-50
2021/12/20 03:58:57;;;;;;;0.00;0.00;;;2.60;99.90;;;;;;5091902;28;20233;-50
2021/12/20 04:01:25;;;;;;;0.00;0.00;;;2.60;99.90;;;;;;5092224;28;20460;-50
2021/12/20 04:03:50;;;;;;;0.32;0.28;;;2.60;99.90;;;;;;5091605;28;20425;-50
2021/12/20 04:06:16;;;;;;;11.02;6.85;;;2.70;99.90;;;;;;5091111;28;20024;-50
2021/12/20 04:08:42;;;;;;;0.47;0.38;;;2.70;99.90;;;;;;5076734;28;20612;-50
2021/12/20 04:11:09;;;;;;;0.00;0.00;;;2.60;99.90;;;;;;5054220;28;20371;-49
2021/12/20 04:13:35;;;;;;;0.00;0.00;;;2.60;99.90;;;;;;5073066;28;20024;-51
2021/12/20 04:16:01;;;;;;;0.17;0.17;;;2.50;99.90;;;;;;5062997;28;20036;-53
2021/12/20 04:18:28;;;;;;;1.27;1.02;;;2.60;99.90;;;;;;5077722;28;20028;-49
2021/12/20 04:20:53;;;;;;;0.00;0.00;;;2.60;99.90;;;;;;5092875;28;20462;-53
2021/12/20 04:23:20;;;;;;;0.22;0.22;;;2.60;99.90;;;;;;5074523;28;20025;-51
2021/12/20 04:25:46;;;;;;;0.00;0.00;;;2.70;99.90;;;;;;5073330;28;20032;-50
2021/12/20 04:28:12;;;;;;;0.90;0.90;;;2.80;99.90;;;;;;5075965;28;20478;-51
2021/12/20 04:30:37;;;;;;;0.10;0.10;;;2.90;99.90;;;;;;5073503;28;20021;-48
2021/12/20 04:33:03;;;;;;;0.00;0.00;;;2.90;99.90;;;;;;5071216;28;20029;-50
2021/12/20 04:35:29;;;;;;;0.00;0.00;;;2.90;99.90;;;;;;5084312;28;20103;-50
2021/12/20 04:37:57;;;;;;;0.00;0.00;;;2.80;99.90;;;;;;5067466;28;20032;-48
2021/12/20 04:40:23;;;;;;;0.45;0.45;;;2.80;99.90;;;;;;5072012;28;20431;-51
2021/12/20 04:42:52;;;;;;;0.00;0.00;;;2.80;99.90;;;;;;5070766;28;20021;-49
2021/12/20 04:45:17;;;;;;;0.35;0.35;;;2.80;99.90;;;;;;5062719;28;20012;-52
2021/12/20 04:47:43;;;;;;;0.20;0.15;;;2.90;99.90;;;;;;5087107;28;20028;-50
2021/12/20 04:50:10;;;;;;;0.85;0.25;;;2.90;99.90;;;;;;5068469;28;20464;-51
2021/12/20 04:52:36;;;;;;;0.00;0.00;;;2.80;99.90;;;;;;5070217;28;20090;-54
2021/12/20 04:55:04;;;;;;;0.00;0.00;;;2.70;99.90;;;;;;5070731;28;20028;-54
2021/12/20 04:57:30;;;;;;;0.20;0.20;;;2.70;99.90;;;;;;5074308;28;20081;-49
2021/12/20 04:59:55;;;;;;;2.55;1.10;;;2.70;99.90;;;;;;5092114;28;20028;-50
2021/12/20 05:02:21;;;;;;;0.00;0.00;;;2.80;99.90;;;;;;5094380;28;20032;-53
2021/12/20 05:04:46;;;;;;;0.00;0.00;;;2.80;99.90;;;;;;5069073;28;20454;-51
2021/12/20 05:07:12;;;;;;;5.57;0.52;;;2.80;99.90;;;;;;5074306;28;20124;-55
2021/12/20 05:09:40;;;;;;;0.00;0.00;;;2.80;99.90;;;;;;5072967;28;20439;-49
2021/12/20 05:12:14;;;;;;;0.75;0.52;;;2.80;99.90;;;;;;5073558;28;20546;-54
2021/12/20 05:14:42;;;;;;;0.35;0.35;;;2.70;99.90;;;;;;5074126;28;20134;-51
2021/12/20 05:17:09;;;;;;;0.08;0.08;;;2.60;99.90;;;;;;5074063;28;20082;-52
2021/12/20 05:19:35;;;;;;;0.10;0.10;;;2.70;99.90;;;;;;5073318;28;20050;-52
2021/12/20 05:22:01;;;;;;;0.00;0.00;;;2.80;99.90;;;;;;5073621;28;20028;-47
2021/12/20 05:24:26;;;;;;;0.38;0.38;;;2.80;99.90;;;;;;5073854;28;20074;-54
2021/12/20 05:26:52;;;;;;;0.00;0.00;;;2.70;99.90;;;;;;5074517;28;20033;-52
2021/12/20 05:29:17;;;;;;;0.00;0.00;;;2.80;99.90;;;;;;5075872;28;20025;-47
2021/12/20 05:31:43;;;;;;;0.00;0.00;;;2.80;99.90;;;;;;5075730;28;20409;-53
2021/12/20 05:34:09;;;;;;;0.05;0.05;;;2.60;99.90;;;;;;5075294;28;20036;-47
2021/12/20 05:36:35;;;;;;;11.25;1.85;;;2.70;99.90;;;;;;5075599;28;20025;-50
2021/12/20 05:39:02;;;;;;;0.00;0.00;;;2.80;99.90;;;;;;5075448;28;20074;-49
2021/12/20 05:41:27;;;;;;;0.00;0.00;;;2.80;99.90;;;;;;5075632;28;20111;-50
2021/12/20 05:43:53;;;;;;;0.32;0.30;;;2.80;99.90;;;;;;5074991;28;20400;-53
2021/12/20 05:46:20;;;;;;;0.00;0.00;;;2.90;99.90;;;;;;5075359;28;20108;-52
2021/12/20 05:48:45;;;;;;;0.00;0.00;;;2.90;99.90;;;;;;5074738;28;20060;-52
2021/12/20 05:51:12;;;;;;;1.13;0.75;;;2.90;99.90;;;;;;5075075;28;20071;-49
2021/12/20 05:53:37;;;;;;;0.08;0.08;;;2.80;99.90;;;;;;5070713;28;20025;-49
2021/12/20 05:56:03;;;;;;;0.03;0.03;;;2.90;99.90;;;;;;5074449;28;20044;-53
2021/12/20 05:58:29;;;;;;;0.00;0.00;;;2.90;99.90;;;;;;5053521;28;20056;-49
2021/12/20 06:00:54;;;;;;;0.00;0.00;;;2.90;99.90;;;;;;5072877;28;20056;-51
2021/12/20 06:03:20;;;;;;;1.65;0.95;;;2.80;99.90;;;;;;5074973;28;20478;-50
2021/12/20 06:05:46;;;;;;;1.85;1.75;;;2.90;99.90;;;;;;5074994;28;20122;-49
2021/12/20 06:08:11;;;;;;;0.00;0.00;;;3.00;99.90;;;;;;5074471;28;20425;-51
2021/12/20 06:10:39;;;;;;;1.08;0.98;;;2.80;99.90;;;;;;5074699;28;20078;-51
2021/12/20 06:13:05;;;;;;;0.95;0.95;;;2.80;99.90;;;;;;5074651;28;20048;-51
2021/12/20 06:15:31;;;;;;;0.00;0.00;;;2.80;99.90;;;;;;5074662;28;20126;-51
2021/12/20 06:17:57;;;;;;;0.00;0.00;;;2.80;99.90;;;;;;5074685;28;20060;-50
2021/12/20 06:20:23;;;;;;;1.92;1.20;;;2.80;99.90;;;;;;5074281;28;20027;-54
2021/12/20 06:22:49;;;;;;;0.00;0.00;;;2.80;99.90;;;;;;5074498;28;20030;-51
2021/12/20 06:25:15;;;;;;;0.00;0.00;;;2.90;99.90;;;;;;5073824;28;20119;-49
2021/12/20 06:27:42;;;;;;;1.40;1.25;;;2.80;99.90;;;;;;5073692;28;20036;-47
2021/12/20 06:30:09;;;;;;;0.75;0.65;;;2.80;99.90;;;;;;5073793;28;20069;-51
2021/12/20 06:32:42;;;;;;;0.90;0.60;;;2.80;99.90;;;;;;5073579;28;20044;-50
2021/12/20 06:35:09;;;;;;;0.30;0.30;;;2.80;99.90;;;;;;5074006;28;20035;-51
2021/12/20 06:37:35;;;;;;;0.70;0.70;;;2.80;99.90;;;;;;5073796;28;20387;-50
2021/12/20 06:40:03;;;;;;;0.00;0.00;;;2.80;99.90;;;;;;5073674;28;20032;-50
2021/12/20 06:42:29;;;;;;;1.65;1.55;;;2.80;99.90;;;;;;5073656;28;20027;-50
2021/12/20 06:44:55;;;;;;;0.40;0.40;;;2.80;99.90;;;;;;5073765;28;20029;-51
2021/12/20 06:47:22;;;;;;;0.00;0.00;;;2.80;99.90;;;;;;5073316;28;20097;-53
2021/12/20 06:49:48;;;;;;;0.00;0.00;;;2.70;99.90;;;;;;5073555;28;20063;-54
2021/12/20 06:52:14;;;;;;;0.00;0.00;;;2.70;99.90;;;;;;5073677;28;20028;-48
2021/12/20 06:54:40;;;;;;;0.00;0.00;;;2.80;99.90;;;;;;5073930;28;20344;-51
2021/12/20 06:57:06;;;;;;;0.05;0.05;;;2.80;99.90;;;;;;5073332;28;20024;-49
2021/12/20 06:59:32;;;;;;;0.00;0.00;;;2.80;99.90;;;;;;5073195;28;20141;-51
2021/12/20 07:01:57;;;;;;;0.00;0.00;;;2.80;99.90;;;;;;5073664;28;20024;-51
2021/12/20 07:04:23;;;;;;;0.00;0.00;;;2.80;99.90;;;;;;5073381;28;20052;-50
2021/12/20 07:06:49;;;;;;;0.32;0.32;;;2.90;99.90;;;;;;5073337;28;20068;-49
2021/12/20 07:09:15;;;;;;;1.35;1.23;;;3.00;99.90;;;;;;5073323;28;20025;-51
2021/12/20 07:11:42;;;;;;;0.35;0.20;;;2.90;99.90;;;;;;5072424;28;20048;-52
2021/12/20 07:14:09;;;;;;;0.75;0.65;;;2.90;99.90;;;;;;5073168;28;20040;-54
2021/12/20 07:16:35;;;;;;;1.20;1.17;;;2.90;99.90;;;;;;5072955;28;20027;-51
2021/12/20 07:19:03;;;;;;;0.25;0.25;;;2.90;99.90;;;;;;5072860;28;20400;-47
2021/12/20 07:21:28;;;;;;;1.67;1.30;;;2.90;99.90;;;;;;5072983;28;20119;-49
2021/12/20 07:23:54;;;;;;;9.98;1.55;;;2.90;99.90;;;;;;5073253;28;20063;-49
2021/12/20 07:26:20;;;;;;;0.32;0.32;;;2.90;99.90;;;;;;5072874;28;20024;-50
2021/12/20 07:28:46;;;;;;;0.45;0.45;;;2.90;99.90;;;;;;5073294;28;20032;-49
2021/12/20 07:31:13;;;;;;;0.28;0.28;;;2.90;99.90;;;;;;5073024;28;20146;-49
2021/12/20 07:33:39;;;;;;;0.00;0.00;;;2.90;99.90;;;;;;5072792;28;20028;-49
2021/12/20 07:36:06;;;;;;;0.60;0.60;;;2.90;99.90;;;;;;5073337;28;20028;-54
2021/12/20 07:38:31;;;;;;;0.03;0.03;;;2.90;99.90;;;;;;5073180;28;20463;-49
2021/12/20 07:40:57;;;;;;;0.43;0.38;;;3.10;99.90;;;;;;5073120;28;20032;-52
2021/12/20 07:43:23;;;;;;;0.95;0.95;;;3.10;99.90;;;;;;5072872;28;20025;-51
2021/12/20 07:45:49;;;;;;;0.85;0.82;;;3.10;99.90;;;;;;5073345;28;20432;-51
2021/12/20 07:48:16;;;;;;;1.85;0.55;;;3.00;99.90;;;;;;5072716;28;20477;-49
2021/12/20 07:50:42;;;;;;;0.15;0.15;;;3.10;99.90;;;;;;5051753;28;20040;-50
2021/12/20 07:53:08;;;;;;;0.22;0.22;;;3.10;99.90;;;;;;5065014;28;20032;-50
2021/12/20 07:55:34;;;;;;;1.23;1.13;;;3.00;99.90;;;;;;5072830;28;20025;-52
2021/12/20 07:58:00;;;;;;;0.00;0.00;;;3.10;99.90;;;;;;5073352;28;20044;-50
2021/12/20 08:00:26;;;;;;;0.00;0.00;;;3.20;99.90;;;;;;5071382;28;20408;-53
2021/12/20 08:02:52;;;;;;;0.00;0.00;;;3.20;99.90;;;;;;5062502;28;20029;-48
2021/12/20 08:05:19;;;;;;;0.00;0.00;;;3.20;99.90;;;;;;5067420;28;20439;-54
2021/12/20 08:07:48;;;;;;;1.05;1.05;;;3.20;99.90;;;;;;5083234;28;20032;-50
2021/12/20 08:10:15;;;;;;;0.00;0.00;;;3.30;99.90;;;;;;5093368;28;20036;-53
2021/12/20 08:12:40;;;;;;;0.00;0.00;;;3.20;99.90;;;;;;5093103;28;20031;-53
2021/12/20 08:15:07;;;;;;;0.20;0.20;;;3.30;99.90;;;;;;5093091;28;20028;-49
2021/12/20 08:17:32;;;;;;;0.70;0.70;;;3.30;99.90;;;;;;5092987;28;20024;-54
2021/12/20 08:19:58;;;;;;;0.00;0.00;;;3.40;99.90;;;;;;5102861;28;20031;-48
2021/12/20 08:22:25;;;;;;;0.00;0.00;;;3.40;99.90;;;;;;5113414;28;20027;-48
2021/12/20 08:24:52;;;;;;;0.00;0.00;;;3.40;99.90;;;;;;5103714;28;20078;-51
2021/12/20 08:27:18;;;;;;;0.00;0.00;;;3.40;99.90;;;;;;5104379;28;20442;-49
2021/12/20 08:29:44;;;;;;;0.00;0.00;;;3.50;99.90;;;;;;5096793;28;20055;-50
2021/12/20 08:32:09;;;;;;;0.00;0.00;;;3.60;99.90;;;;;;5096352;28;20111;-51
2021/12/20 08:34:35;;;;;;;0.00;0.00;;;3.70;99.90;;;;;;5070252;28;20112;-53
2021/12/20 08:37:01;;;;;;;0.00;0.00;;;3.70;99.90;;;;;;5092002;28;20105;-49
2021/12/20 08:39:28;;;;;;;1.20;1.17;;;3.80;99.90;;;;;;5089074;28;20020;-52
2021/12/20 08:41:54;;;;;;;0.22;0.20;;;3.80;99.90;;;;;;5103170;28;20016;-50
2021/12/20 08:44:19;;;;;;;0.20;0.20;;;3.70;99.90;;;;;;5074131;28;20074;-53
2021/12/20 08:46:45;;;;;;;0.70;0.70;;;3.50;99.90;;;;;;5092824;28;20044;-52
2021/12/20 08:49:11;;;;;;;6.60;2.97;;;3.40;99.90;;;;;;5092587;28;20032;-51
2021/12/20 08:51:37;;;;;;;0.25;0.22;;;3.20;99.90;;;;;;5082595;28;20382;-53
2021/12/20 08:54:04;;;;;;;1.00;1.00;;;3.20;99.90;;;;;;5078049;28;20349;-50
2021/12/20 08:56:30;;;;;;;4.50;1.92;;;3.30;99.90;;;;;;5076004;28;20021;-51
2021/12/20 08:58:55;;;;;;;0.68;0.68;;;3.30;99.90;;;;;;5079094;28;20020;-51
2021/12/20 09:01:21;;;;;;;2.10;1.92;;;3.40;99.90;;;;;;5077580;28;20527;-51
2021/12/20 09:03:47;;;;;;;0.00;0.00;;;3.50;99.90;;;;;;5092539;28;20098;-50
2021/12/20 09:06:13;;;;;;;4.50;2.38;;;3.60;99.90;;;;;;5077426;28;20028;-49
2021/12/20 09:08:42;;;;;;;0.80;0.80;;;3.70;99.90;;;;;;5092046;28;20063;-51
2021/12/20 09:11:07;;;;;;;0.22;0.22;;;3.60;99.90;;;;;;5096206;28;20036;-54
2021/12/20 09:13:33;;;;;;;1.13;1.08;;;3.60;99.90;;;;;;5108990;28;20073;-56
2021/12/20 09:15:59;;;;;;;0.00;0.00;;;3.70;99.90;;;;;;5079339;28;20043;-52
2021/12/20 09:18:29;;;;;;;1.10;1.00;;;3.50;99.90;;;;;;5079275;28;20103;-49
2021/12/20 09:20:56;;;;;;;5.30;1.05;;;3.60;99.90;;;;;;5088486;28;20050;-50
2021/12/20 09:23:22;;;;;;;0.28;0.28;;;3.60;99.90;;;;;;5079114;28;20044;-51
2021/12/20 09:25:48;;;;;;;1.20;0.90;;;3.70;99.90;;;;;;5088789;28;20020;-53
2021/12/20 09:28:15;;;;;;;0.20;0.20;;;3.70;99.90;;;;;;5075519;28;20062;-52
2021/12/20 09:30:44;;;;;;;0.47;0.25;;;3.70;99.90;;;;;;5057638;28;20083;-49
2021/12/20 09:33:10;;;;;;;3.22;2.92;;;3.80;99.90;;;;;;5075276;28;20025;-52
2021/12/20 09:35:37;;;;;;;0.15;0.15;;;3.80;99.90;;;;;;5074558;28;20382;-50
2021/12/20 09:38:08;;;;;;;0.22;0.22;;;3.60;99.90;;;;;;5074956;28;20467;-53
2021/12/20 09:40:37;;;;;;;2.80;1.25;;;3.70;99.90;;;;;;5075203;28;20052;-49
2021/12/20 09:43:12;;;;;;;1.52;1.45;;;3.70;99.90;;;;;;5074708;28;20132;-52
2021/12/20 09:45:41;;;;;;;0.00;0.00;;;3.80;99.90;;;;;;5074622;28;20024;-52
2021/12/20 09:48:07;;;;;;;0.00;0.00;;;3.90;99.90;;;;;;5075037;28;20032;-52
2021/12/20 09:50:33;;;;;;;0.00;0.00;;;4.10;99.90;;;;;;5075122;28;20033;-52
2021/12/20 09:53:04;;;;;;;4.75;1.65;;;4.20;99.90;;;;;;5075103;28;20068;-51
2021/12/20 09:55:31;;;;;;;2.53;0.90;;;4.30;99.90;;;;;;5075147;28;20016;-50
2021/12/20 09:58:00;;;;;;;7.22;3.40;;;4.00;99.90;;;;;;5074530;28;20040;-50
2021/12/20 10:00:25;;;;;;;2.55;1.27;;;4.10;99.90;;;;;;5057071;28;20030;-52
2021/12/20 10:02:51;;;;;;;0.43;0.38;;;4.20;99.90;;;;;;5074868;28;20024;-51
2021/12/20 10:05:19;;;;;;;0.52;0.30;;;4.30;99.90;;;;;;5075068;28;20048;-50
2021/12/20 10:07:50;;;;;;;1.70;1.38;;;4.40;99.90;;;;;;5074902;28;20036;-53
2021/12/20 10:10:39;;;;;;;4.20;0.77;;;4.30;99.90;;;;;;5073504;28;20179;-49
2021/12/20 10:13:06;;;;;;;0.00;0.00;;;4.30;99.90;;;;;;5074730;28;20024;-55
2021/12/20 10:15:37;;;;;;;0.13;0.13;;;4.40;99.90;;;;;;5074374;28;20032;-52
2021/12/20 10:18:04;;;;;;;1.75;1.65;;;4.40;99.90;;;;;;5074283;28;20036;-52
2021/12/20 10:20:34;;;;;;;3.35;0.55;;;4.50;99.90;;;;;;5074285;28;20021;-51
2021/12/20 10:23:12;;;;;;;0.00;0.00;;;4.20;99.90;;;;;;5078134;28;20027;-51
2021/12/20 10:25:38;;;;;;;0.00;0.00;;;4.40;99.90;;;;;;5102783;28;20340;-50
2021/12/20 10:28:11;;;;;;;4.55;1.55;;;4.30;99.90;;;;;;5077161;28;20029;-53
2021/12/20 10:30:48;;;;;;;0.73;0.70;;;4.30;99.90;;;;;;5076101;28;20036;-47
2021/12/20 10:33:17;;;;;;;0.10;0.10;;;4.20;99.90;;;;;;5076736;28;20034;-47
2021/12/20 10:35:47;;;;;;;0.00;0.00;;;4.00;99.90;;;;;;5082265;28;20028;-51
2021/12/20 10:38:21;;;;;;;2.35;1.98;;;4.10;99.90;;;;;;5082543;28;20107;-48
2021/12/20 10:40:58;;;;;;;6.13;3.35;;;4.10;99.90;;;;;;5086629;28;20029;-51
2021/12/20 10:43:37;;;;;;;0.00;0.00;;;4.00;99.90;;;;;;5092495;28;20028;-49
2021/12/20 10:46:12;;;;;;;13.40;4.22;;;4.20;99.90;;;;;;5091361;28;20055;-48
2021/12/20 10:48:38;;;;;;;1.95;1.10;;;4.00;99.90;;;;;;5093317;28;20031;-49
2021/12/20 10:51:04;;;;;;;0.25;0.25;;;4.00;99.90;;;;;;5083351;28;20036;-52
2021/12/20 10:53:30;;;;;;;1.00;0.38;;;4.10;99.90;;;;;;5089288;28;20032;-49
2021/12/20 10:56:03;;;;;;;0.10;0.10;;;4.10;99.90;;;;;;5088257;28;20085;-49
2021/12/20 10:58:34;;;;;;;0.60;0.60;;;4.30;99.90;;;;;;5087687;28;20059;-51
2021/12/20 11:04:13;;;;;;;2.75;2.08;;;4.50;99.90;;;;;;5060033;28;20048;-49
2021/12/20 11:09:23;;;;;;;0.65;0.20;;;4.10;99.90;;;;;;5073359;28;20490;-49
2021/12/20 11:11:55;;;;;;;0.70;0.70;;;3.80;99.90;;;;;;5074578;28;20025;-52
2021/12/20 11:14:27;;;;;;;1.80;1.58;;;3.90;99.90;;;;;;5073284;28;20063;-52
2021/12/20 11:16:55;;;;;;;0.57;0.57;;;3.80;99.90;;;;;;5092624;28;20024;-51
2021/12/20 11:19:39;;;;;;;0.90;0.35;;;3.90;99.90;;;;;;5074373;28;20025;-50
2021/12/20 11:22:24;;;;;;;2.20;1.27;;;4.10;99.90;;;;;;5088765;28;20376;-51
2021/12/20 11:25:03;;;;;;;4.82;2.85;;;4.10;99.90;;;;;;5085635;28;20378;-50
2021/12/20 11:27:34;;;;;;;9.15;5.18;;;4.10;99.90;;;;;;5073459;28;20068;-50
2021/12/20 11:30:05;;;;;;;7.03;3.55;;;4.00;99.90;;;;;;5084556;28;20032;-46
2021/12/20 11:32:31;;;;;;;0.35;0.32;;;4.00;99.90;;;;;;5088401;28;20043;-47
2021/12/20 11:34:57;;;;;;;0.73;0.73;;;4.00;99.90;;;;;;5092598;28;20028;-52
2021/12/20 11:37:25;;;;;;;1.48;1.38;;;4.10;99.90;;;;;;5072617;28;20040;-51
2021/12/20 11:39:51;;;;;;;1.42;1.33;;;4.20;99.90;;;;;;5077441;28;20045;-49
2021/12/20 11:42:18;;;;;;;1.67;0.40;;;4.20;99.90;;;;;;5085479;28;20032;-48
2021/12/20 11:44:47;;;;;;;0.95;0.95;;;4.40;99.90;;;;;;5082764;28;20184;-51
2021/12/20 11:47:31;;;;;;;4.28;2.72;;;4.30;99.90;;;;;;5076267;28;20043;-49
2021/12/20 11:49:57;;;;;;;2.83;1.50;;;4.30;99.90;;;;;;5072875;28;20052;-49
2021/12/20 11:52:22;;;;;;;1.00;0.43;;;4.30;99.90;;;;;;5068652;28;20035;-52
2021/12/20 11:54:53;;;;;;;0.00;0.00;;;4.30;99.90;;;;;;5083520;28;20438;-52
2021/12/20 11:57:28;;;;;;;6.28;1.80;;;4.20;99.90;;;;;;5092404;28;20043;-50
2021/12/20 12:00:19;;;;;;;1.95;1.55;;;4.20;99.90;;;;;;5104203;28;20028;-51
2021/12/20 12:02:47;;;;;;;2.03;1.42;;;4.10;99.90;;;;;;5086410;28;20050;-49
2021/12/20 12:05:27;;;;;;;0.88;0.63;;;4.10;99.90;;;;;;5092366;28;20044;-50
2021/12/20 12:07:53;;;;;;;2.85;1.80;;;4.00;99.90;;;;;;5092949;28;20518;-50
2021/12/20 12:10:28;;;;;;;2.90;1.85;;;4.00;99.90;;;;;;5057314;28;20120;-51
2021/12/20 12:13:00;;;;;;;3.72;0.22;;;3.90;99.90;;;;;;5060866;28;20035;-49
2021/12/20 12:15:43;;;;;;;19.15;2.15;;;4.10;99.90;;;;;;5048432;28;20048;-49
2021/12/20 12:18:10;;;;;;;1.75;1.25;;;4.00;99.90;;;;;;5041636;28;20106;-50
2021/12/20 12:20:49;;;;;;;0.75;0.40;;;4.00;99.90;;;;;;5071697;28;20438;-50
2021/12/20 12:23:26;;;;;;;0.52;0.52;;;3.80;99.90;;;;;;5068523;28;20520;-52
2021/12/20 12:26:02;;;;;;;0.65;0.65;;;3.80;99.90;;;;;;5051375;28;20029;-49
2021/12/20 12:28:55;;;;;;;0.00;0.00;;;4.00;99.90;;;;;;5069458;28;20033;-52
2021/12/20 12:31:21;;;;;;;0.20;0.20;;;4.20;99.90;;;;;;5072369;28;20029;-51
2021/12/20 12:33:47;;;;;;;1.60;0.52;;;4.20;99.90;;;;;;5077157;28;20035;-52
2021/12/20 12:36:23;;;;;;;0.00;0.00;;;4.30;99.90;;;;;;5075916;28;20036;-51
2021/12/20 12:39:01;;;;;;;0.30;0.25;;;4.20;99.90;;;;;;5062347;28;20525;-51
2021/12/20 12:41:32;;;;;;;6.65;2.60;;;4.20;99.90;;;;;;5054183;28;20033;-48
2021/12/20 12:44:07;;;;;;;0.00;0.00;;;4.10;99.90;;;;;;5056562;28;20116;-51
2021/12/20 12:46:35;;;;;;;1.52;0.40;;;4.10;99.90;;;;;;5065125;28;20042;-55
2021/12/20 12:49:21;;;;;;;6.38;1.58;;;4.10;99.90;;;;;;5050299;28;20118;-51
2021/12/20 12:51:54;;;;;;;0.52;0.52;;;3.80;99.90;;;;;;5061351;28;20047;-48
2021/12/20 12:54:40;;;;;;;0.00;0.00;;;3.90;99.90;;;;;;5052399;28;20032;-50
2021/12/20 12:57:11;;;;;;;0.50;0.50;;;3.90;99.90;;;;;;5055843;28;20071;-50
2021/12/20 12:59:56;;;;;;;0.40;0.40;;;3.90;99.90;;;;;;5054925;28;20040;-50
2021/12/20 13:02:34;;;;;;;3.33;2.35;;;3.90;99.90;;;;;;5055631;28;20036;-48
2021/12/20 13:05:05;;;;;;;5.45;1.65;;;3.90;99.90;;;;;;5052356;28;20468;-50
2021/12/20 13:07:32;;;;;;;20.90;1.77;;;3.80;99.90;;;;;;5052720;28;20143;-49
2021/12/20 13:10:03;;;;;;;3.22;1.15;;;3.70;99.90;;;;;;5053708;28;20040;-55
2021/12/20 13:15:34;;;;;;;7.13;1.98;;;3.70;99.90;;;;;;5066114;28;20097;-49
2021/12/20 13:18:12;;;;;;;0.00;0.00;;;3.70;99.90;;;;;;5056632;28;20040;-48
2021/12/20 13:20:56;;;;;;;0.00;0.00;;;3.70;99.90;;;;;;5059013;28;21991;-51
2021/12/20 13:23:36;;;;;;;0.00;0.00;;;4.00;99.90;;;;;;5059833;28;20047;-51